sensor_id;sensor_type;location;lat;lon;timestamp;P1;durP1;ratioP1;P2;durP2;ratioP2
67997;SDS011;54773;53.388;-1.504;2023-05-10T00:02:03;6.97;;;2.53;;
67997;SDS011;54773;53.388;-1.504;2023-05-10T00:04:47;9.77;;;2.55;;
67997;SDS011;54773;53.388;-1.504;2023-05-10T00:07:31;8.65;;;2.60;;
67997;SDS011;54773;53.388;-1.504;2023-05-10T00:10:16;9.27;;;3.08;;
67997;SDS011;54773;53.388;-1.504;2023-05-10T00:13:00;9.93;;;2.38;;
67997;SDS011;54773;53.388;-1.504;2023-05-10T00:15:45;10.40;;;2.40;;
67997;SDS011;54773;53.388;-1.504;2023-05-10T00:18:29;5.60;;;1.87;;
67997;SDS011;54773;53.388;-1.504;2023-05-10T00:21:13;8.55;;;2.13;;
67997;SDS011;54773;53.388;-1.504;2023-05-10T00:24:00;10.80;;;2.45;;
67997;SDS011;54773;53.388;-1.504;2023-05-10T00:26:44;8.68;;;2.33;;
67997;SDS011;54773;53.388;-1.504;2023-05-10T00:29:31;9.32;;;2.55;;
67997;SDS011;54773;53.388;-1.504;2023-05-10T00:32:15;8.73;;;2.50;;
67997;SDS011;54773;53.388;-1.504;2023-05-10T00:34:59;9.20;;;2.70;;
67997;SDS011;54773;53.388;-1.504;2023-05-10T00:37:44;10.48;;;2.58;;
67997;SDS011;54773;53.388;-1.504;2023-05-10T00:43:17;10.88;;;2.42;;
67997;SDS011;54773;53.388;-1.504;2023-05-10T00:46:01;9.63;;;2.88;;
67997;SDS011;54773;53.388;-1.504;2023-05-10T00:48:47;14.48;;;2.85;;
67997;SDS011;54773;53.388;-1.504;2023-05-10T00:51:32;13.45;;;2.90;;
67997;SDS011;54773;53.388;-1.504;2023-05-10T00:54:17;11.32;;;3.00;;
67997;SDS011;54773;53.388;-1.504;2023-05-10T00:57:08;12.60;;;2.90;;
67997;SDS011;54773;53.388;-1.504;2023-05-10T00:59:55;11.82;;;2.88;;
67997;SDS011;54773;53.388;-1.504;2023-05-10T01:02:39;10.57;;;2.67;;
67997;SDS011;54773;53.388;-1.504;2023-05-10T01:08:08;9.50;;;2.65;;
67997;SDS011;54773;53.388;-1.504;2023-05-10T01:10:52;12.25;;;2.95;;
67997;SDS011;54773;53.388;-1.504;2023-05-10T01:13:37;12.85;;;3.17;;
67997;SDS011;54773;53.388;-1.504;2023-05-10T01:16:22;13.95;;;2.67;;
67997;SDS011;54773;53.388;-1.504;2023-05-10T01:19:12;9.07;;;2.55;;
67997;SDS011;54773;53.388;-1.504;2023-05-10T01:35:07;9.10;;;2.30;;
67997;SDS011;54773;53.388;-1.504;2023-05-10T01:44:11;12.25;;;2.60;;
67997;SDS011;54773;53.388;-1.504;2023-05-10T01:47:10;9.68;;;2.78;;
67997;SDS011;54773;53.388;-1.504;2023-05-10T01:49:56;8.32;;;2.10;;
67997;SDS011;54773;53.388;-1.504;2023-05-10T01:52:55;11.00;;;2.50;;
67997;SDS011;54773;53.388;-1.504;2023-05-10T01:55:43;8.82;;;1.90;;
67997;SDS011;54773;53.388;-1.504;2023-05-10T01:58:30;9.60;;;2.45;;
67997;SDS011;54773;53.388;-1.504;2023-05-10T02:01:16;9.27;;;2.70;;
67997;SDS011;54773;53.388;-1.504;2023-05-10T02:04:03;11.55;;;2.60;;
67997;SDS011;54773;53.388;-1.504;2023-05-10T02:06:48;11.40;;;2.33;;
67997;SDS011;54773;53.388;-1.504;2023-05-10T02:09:34;9.65;;;2.60;;
67997;SDS011;54773;53.388;-1.504;2023-05-10T02:12:18;10.63;;;2.60;;
67997;SDS011;54773;53.388;-1.504;2023-05-10T02:15:06;8.32;;;2.88;;
67997;SDS011;54773;53.388;-1.504;2023-05-10T02:17:51;9.80;;;2.70;;
67997;SDS011;54773;53.388;-1.504;2023-05-10T02:20:36;14.35;;;3.33;;
67997;SDS011;54773;53.388;-1.504;2023-05-10T02:23:21;9.38;;;3.20;;
67997;SDS011;54773;53.388;-1.504;2023-05-10T02:26:07;13.88;;;3.58;;
67997;SDS011;54773;53.388;-1.504;2023-05-10T02:28:52;10.93;;;3.40;;
67997;SDS011;54773;53.388;-1.504;2023-05-10T02:37:06;10.02;;;3.55;;
67997;SDS011;54773;53.388;-1.504;2023-05-10T02:39:52;12.70;;;3.13;;
67997;SDS011;54773;53.388;-1.504;2023-05-10T02:42:37;14.35;;;3.80;;
67997;SDS011;54773;53.388;-1.504;2023-05-10T02:45:24;12.00;;;2.90;;
67997;SDS011;54773;53.388;-1.504;2023-05-10T02:48:17;12.82;;;3.53;;
67997;SDS011;54773;53.388;-1.504;2023-05-10T02:51:05;10.32;;;3.33;;
67997;SDS011;54773;53.388;-1.504;2023-05-10T02:53:51;10.40;;;3.63;;
67997;SDS011;54773;53.388;-1.504;2023-05-10T02:56:39;10.32;;;3.30;;
67997;SDS011;54773;53.388;-1.504;2023-05-10T02:59:26;14.35;;;3.70;;
67997;SDS011;54773;53.388;-1.504;2023-05-10T03:02:12;11.02;;;3.75;;
67997;SDS011;54773;53.388;-1.504;2023-05-10T03:04:56;14.55;;;3.78;;
67997;SDS011;54773;53.388;-1.504;2023-05-10T03:07:44;11.10;;;3.67;;
67997;SDS011;54773;53.388;-1.504;2023-05-10T03:10:29;10.25;;;3.92;;
67997;SDS011;54773;53.388;-1.504;2023-05-10T03:13:29;12.00;;;3.03;;
67997;SDS011;54773;53.388;-1.504;2023-05-10T03:16:29;12.93;;;3.40;;
67997;SDS011;54773;53.388;-1.504;2023-05-10T03:22:08;10.98;;;3.30;;
67997;SDS011;54773;53.388;-1.504;2023-05-10T03:24:55;10.00;;;3.38;;
67997;SDS011;54773;53.388;-1.504;2023-05-10T03:27:41;15.63;;;3.45;;
67997;SDS011;54773;53.388;-1.504;2023-05-10T03:30:27;10.80;;;3.75;;
67997;SDS011;54773;53.388;-1.504;2023-05-10T03:33:12;9.35;;;3.40;;
67997;SDS011;54773;53.388;-1.504;2023-05-10T03:36:05;11.75;;;3.53;;
67997;SDS011;54773;53.388;-1.504;2023-05-10T03:38:53;10.38;;;3.72;;
67997;SDS011;54773;53.388;-1.504;2023-05-10T03:41:37;11.23;;;3.63;;
67997;SDS011;54773;53.388;-1.504;2023-05-10T03:44:21;9.20;;;3.50;;
67997;SDS011;54773;53.388;-1.504;2023-05-10T03:47:04;9.93;;;3.80;;
67997;SDS011;54773;53.388;-1.504;2023-05-10T03:49:48;13.35;;;3.95;;
67997;SDS011;54773;53.388;-1.504;2023-05-10T03:52:32;13.57;;;4.25;;
67997;SDS011;54773;53.388;-1.504;2023-05-10T03:55:17;8.60;;;4.05;;
67997;SDS011;54773;53.388;-1.504;2023-05-10T03:58:04;9.88;;;3.83;;
67997;SDS011;54773;53.388;-1.504;2023-05-10T04:00:49;10.35;;;3.83;;
67997;SDS011;54773;53.388;-1.504;2023-05-10T04:06:20;13.38;;;4.70;;
67997;SDS011;54773;53.388;-1.504;2023-05-10T04:09:07;11.50;;;3.60;;
67997;SDS011;54773;53.388;-1.504;2023-05-10T04:11:52;14.20;;;4.70;;
67997;SDS011;54773;53.388;-1.504;2023-05-10T04:14:36;15.57;;;4.25;;
67997;SDS011;54773;53.388;-1.504;2023-05-10T04:17:20;10.85;;;3.97;;
67997;SDS011;54773;53.388;-1.504;2023-05-10T04:20:08;9.77;;;4.25;;
67997;SDS011;54773;53.388;-1.504;2023-05-10T04:22:53;10.32;;;4.22;;
67997;SDS011;54773;53.388;-1.504;2023-05-10T04:25:40;11.52;;;4.38;;
67997;SDS011;54773;53.388;-1.504;2023-05-10T04:28:24;12.52;;;4.60;;
67997;SDS011;54773;53.388;-1.504;2023-05-10T04:31:09;12.75;;;4.70;;
67997;SDS011;54773;53.388;-1.504;2023-05-10T04:33:54;18.83;;;5.53;;
67997;SDS011;54773;53.388;-1.504;2023-05-10T04:36:38;14.00;;;5.50;;
67997;SDS011;54773;53.388;-1.504;2023-05-10T04:39:22;17.02;;;5.65;;
67997;SDS011;54773;53.388;-1.504;2023-05-10T04:42:06;19.07;;;5.83;;
67997;SDS011;54773;53.388;-1.504;2023-05-10T04:44:50;11.63;;;5.22;;
67997;SDS011;54773;53.388;-1.504;2023-05-10T04:50:22;14.57;;;5.70;;
67997;SDS011;54773;53.388;-1.504;2023-05-10T04:53:07;14.77;;;6.10;;
67997;SDS011;54773;53.388;-1.504;2023-05-10T04:55:53;16.85;;;5.32;;
67997;SDS011;54773;53.388;-1.504;2023-05-10T04:58:38;16.88;;;5.50;;
67997;SDS011;54773;53.388;-1.504;2023-05-10T05:01:28;16.83;;;5.55;;
67997;SDS011;54773;53.388;-1.504;2023-05-10T05:04:12;12.63;;;5.13;;
67997;SDS011;54773;53.388;-1.504;2023-05-10T05:06:56;14.65;;;4.68;;
67997;SDS011;54773;53.388;-1.504;2023-05-10T05:09:40;18.10;;;5.73;;
67997;SDS011;54773;53.388;-1.504;2023-05-10T05:12:24;17.15;;;6.10;;
67997;SDS011;54773;53.388;-1.504;2023-05-10T05:15:09;14.80;;;6.07;;
67997;SDS011;54773;53.388;-1.504;2023-05-10T05:17:53;15.13;;;5.80;;
67997;SDS011;54773;53.388;-1.504;2023-05-10T05:20:37;17.00;;;6.05;;
67997;SDS011;54773;53.388;-1.504;2023-05-10T05:23:21;18.35;;;6.10;;
67997;SDS011;54773;53.388;-1.504;2023-05-10T05:26:08;17.25;;;5.45;;
67997;SDS011;54773;53.388;-1.504;2023-05-10T05:28:52;18.42;;;5.85;;
67997;SDS011;54773;53.388;-1.504;2023-05-10T05:31:38;15.02;;;5.35;;
67997;SDS011;54773;53.388;-1.504;2023-05-10T05:34:22;19.23;;;5.43;;
67997;SDS011;54773;53.388;-1.504;2023-05-10T05:37:06;15.30;;;5.70;;
67997;SDS011;54773;53.388;-1.504;2023-05-10T05:39:50;12.55;;;5.18;;
67997;SDS011;54773;53.388;-1.504;2023-05-10T05:42:35;13.10;;;5.80;;
67997;SDS011;54773;53.388;-1.504;2023-05-10T05:45:19;16.40;;;5.17;;
67997;SDS011;54773;53.388;-1.504;2023-05-10T05:48:04;13.32;;;5.00;;
67997;SDS011;54773;53.388;-1.504;2023-05-10T05:50:48;14.27;;;5.65;;
67997;SDS011;54773;53.388;-1.504;2023-05-10T05:53:35;13.07;;;5.20;;
67997;SDS011;54773;53.388;-1.504;2023-05-10T05:56:21;15.98;;;5.40;;
67997;SDS011;54773;53.388;-1.504;2023-05-10T05:59:07;18.13;;;5.20;;
67997;SDS011;54773;53.388;-1.504;2023-05-10T06:01:52;14.63;;;5.22;;
67997;SDS011;54773;53.388;-1.504;2023-05-10T06:04:36;11.75;;;5.00;;
67997;SDS011;54773;53.388;-1.504;2023-05-10T06:07:21;12.93;;;5.97;;
67997;SDS011;54773;53.388;-1.504;2023-05-10T06:10:05;11.60;;;4.82;;
67997;SDS011;54773;53.388;-1.504;2023-05-10T06:12:50;11.82;;;4.95;;
67997;SDS011;54773;53.388;-1.504;2023-05-10T06:15:33;16.70;;;5.70;;
67997;SDS011;54773;53.388;-1.504;2023-05-10T06:18:21;15.50;;;5.25;;
67997;SDS011;54773;53.388;-1.504;2023-05-10T06:21:06;13.93;;;6.22;;
67997;SDS011;54773;53.388;-1.504;2023-05-10T06:23:50;12.75;;;5.07;;
67997;SDS011;54773;53.388;-1.504;2023-05-10T06:26:34;16.40;;;5.37;;
67997;SDS011;54773;53.388;-1.504;2023-05-10T06:29:18;13.75;;;6.05;;
67997;SDS011;54773;53.388;-1.504;2023-05-10T06:32:02;11.10;;;5.30;;
67997;SDS011;54773;53.388;-1.504;2023-05-10T06:34:46;14.70;;;5.70;;
67997;SDS011;54773;53.388;-1.504;2023-05-10T06:37:30;11.52;;;4.85;;
67997;SDS011;54773;53.388;-1.504;2023-05-10T06:40:14;13.10;;;4.53;;
67997;SDS011;54773;53.388;-1.504;2023-05-10T06:42:59;11.18;;;5.22;;
67997;SDS011;54773;53.388;-1.504;2023-05-10T06:45:43;12.03;;;4.63;;
67997;SDS011;54773;53.388;-1.504;2023-05-10T06:48:26;14.97;;;5.47;;
67997;SDS011;54773;53.388;-1.504;2023-05-10T06:51:14;11.48;;;4.70;;
67997;SDS011;54773;53.388;-1.504;2023-05-10T06:53:58;11.45;;;5.32;;
67997;SDS011;54773;53.388;-1.504;2023-05-10T06:56:42;10.63;;;4.43;;
67997;SDS011;54773;53.388;-1.504;2023-05-10T06:59:26;9.38;;;3.88;;
67997;SDS011;54773;53.388;-1.504;2023-05-10T07:02:10;10.00;;;4.28;;
67997;SDS011;54773;53.388;-1.504;2023-05-10T07:04:54;10.82;;;4.60;;
67997;SDS011;54773;53.388;-1.504;2023-05-10T07:07:38;11.15;;;4.43;;
67997;SDS011;54773;53.388;-1.504;2023-05-10T07:10:22;12.77;;;4.57;;
67997;SDS011;54773;53.388;-1.504;2023-05-10T07:13:06;7.88;;;4.18;;
67997;SDS011;54773;53.388;-1.504;2023-05-10T07:15:50;7.32;;;3.80;;
67997;SDS011;54773;53.388;-1.504;2023-05-10T07:18:34;13.37;;;4.50;;
67997;SDS011;54773;53.388;-1.504;2023-05-10T07:21:18;9.30;;;4.35;;
67997;SDS011;54773;53.388;-1.504;2023-05-10T07:24:02;10.43;;;3.83;;
67997;SDS011;54773;53.388;-1.504;2023-05-10T07:26:46;10.52;;;3.80;;
67997;SDS011;54773;53.388;-1.504;2023-05-10T07:29:30;12.63;;;4.37;;
67997;SDS011;54773;53.388;-1.504;2023-05-10T07:32:14;7.45;;;3.58;;
67997;SDS011;54773;53.388;-1.504;2023-05-10T07:34:58;10.32;;;3.72;;
67997;SDS011;54773;53.388;-1.504;2023-05-10T07:37:42;8.93;;;3.85;;
67997;SDS011;54773;53.388;-1.504;2023-05-10T07:40:26;10.63;;;3.30;;
67997;SDS011;54773;53.388;-1.504;2023-05-10T07:43:10;9.20;;;3.50;;
67997;SDS011;54773;53.388;-1.504;2023-05-10T07:45:54;7.90;;;3.20;;
67997;SDS011;54773;53.388;-1.504;2023-05-10T07:48:41;7.43;;;2.33;;
67997;SDS011;54773;53.388;-1.504;2023-05-10T07:51:25;7.40;;;2.28;;
67997;SDS011;54773;53.388;-1.504;2023-05-10T07:54:10;6.50;;;2.58;;
67997;SDS011;54773;53.388;-1.504;2023-05-10T07:56:54;6.40;;;2.47;;
67997;SDS011;54773;53.388;-1.504;2023-05-10T07:59:38;10.50;;;3.27;;
67997;SDS011;54773;53.388;-1.504;2023-05-10T08:02:22;7.13;;;3.53;;
67997;SDS011;54773;53.388;-1.504;2023-05-10T08:05:06;8.40;;;3.47;;
67997;SDS011;54773;53.388;-1.504;2023-05-10T08:07:51;8.85;;;3.95;;
67997;SDS011;54773;53.388;-1.504;2023-05-10T08:10:37;7.80;;;3.72;;
67997;SDS011;54773;53.388;-1.504;2023-05-10T08:13:21;8.18;;;3.85;;
67997;SDS011;54773;53.388;-1.504;2023-05-10T08:16:05;10.35;;;4.28;;
67997;SDS011;54773;53.388;-1.504;2023-05-10T08:18:51;11.73;;;4.20;;
67997;SDS011;54773;53.388;-1.504;2023-05-10T08:21:38;8.43;;;4.28;;
67997;SDS011;54773;53.388;-1.504;2023-05-10T08:24:25;5.72;;;3.47;;
67997;SDS011;54773;53.388;-1.504;2023-05-10T08:27:09;6.60;;;3.45;;
67997;SDS011;54773;53.388;-1.504;2023-05-10T08:29:54;10.20;;;3.70;;
67997;SDS011;54773;53.388;-1.504;2023-05-10T08:32:38;9.40;;;3.67;;
67997;SDS011;54773;53.388;-1.504;2023-05-10T08:35:22;7.15;;;3.58;;
67997;SDS011;54773;53.388;-1.504;2023-05-10T08:38:06;7.22;;;3.42;;
67997;SDS011;54773;53.388;-1.504;2023-05-10T08:40:51;9.63;;;4.18;;
67997;SDS011;54773;53.388;-1.504;2023-05-10T08:43:40;8.65;;;3.78;;
67997;SDS011;54773;53.388;-1.504;2023-05-10T08:46:29;8.68;;;4.32;;
67997;SDS011;54773;53.388;-1.504;2023-05-10T08:49:16;12.27;;;4.80;;
67997;SDS011;54773;53.388;-1.504;2023-05-10T08:52:04;7.90;;;4.10;;
67997;SDS011;54773;53.388;-1.504;2023-05-10T08:54:50;7.63;;;3.00;;
67997;SDS011;54773;53.388;-1.504;2023-05-10T08:57:35;7.93;;;3.03;;
67997;SDS011;54773;53.388;-1.504;2023-05-10T09:00:19;7.88;;;2.95;;
67997;SDS011;54773;53.388;-1.504;2023-05-10T09:03:04;4.45;;;1.95;;
67997;SDS011;54773;53.388;-1.504;2023-05-10T09:05:49;3.33;;;1.10;;
67997;SDS011;54773;53.388;-1.504;2023-05-10T09:08:34;2.53;;;0.90;;
67997;SDS011;54773;53.388;-1.504;2023-05-10T09:11:18;3.78;;;1.13;;
67997;SDS011;54773;53.388;-1.504;2023-05-10T09:14:04;3.72;;;1.30;;
67997;SDS011;54773;53.388;-1.504;2023-05-10T09:16:51;5.32;;;1.63;;
67997;SDS011;54773;53.388;-1.504;2023-05-10T09:19:37;6.75;;;1.67;;
67997;SDS011;54773;53.388;-1.504;2023-05-10T09:22:21;5.72;;;1.60;;
67997;SDS011;54773;53.388;-1.504;2023-05-10T09:25:09;4.15;;;1.85;;
67997;SDS011;54773;53.388;-1.504;2023-05-10T09:27:54;6.00;;;2.13;;
67997;SDS011;54773;53.388;-1.504;2023-05-10T09:30:38;6.13;;;2.65;;
67997;SDS011;54773;53.388;-1.504;2023-05-10T09:33:23;7.18;;;2.67;;
67997;SDS011;54773;53.388;-1.504;2023-05-10T09:36:10;7.38;;;2.63;;
67997;SDS011;54773;53.388;-1.504;2023-05-10T09:38:58;6.32;;;2.65;;
67997;SDS011;54773;53.388;-1.504;2023-05-10T09:41:42;5.28;;;2.47;;
67997;SDS011;54773;53.388;-1.504;2023-05-10T09:44:27;7.00;;;3.47;;
67997;SDS011;54773;53.388;-1.504;2023-05-10T09:47:11;7.72;;;2.60;;
67997;SDS011;54773;53.388;-1.504;2023-05-10T09:50:02;6.28;;;2.55;;
67997;SDS011;54773;53.388;-1.504;2023-05-10T09:55:39;8.00;;;3.30;;
67997;SDS011;54773;53.388;-1.504;2023-05-10T09:58:23;6.43;;;3.72;;
67997;SDS011;54773;53.388;-1.504;2023-05-10T10:01:11;8.38;;;3.75;;
67997;SDS011;54773;53.388;-1.504;2023-05-10T10:03:58;4.75;;;2.85;;
67997;SDS011;54773;53.388;-1.504;2023-05-10T10:06:42;7.93;;;4.55;;
67997;SDS011;54773;53.388;-1.504;2023-05-10T10:09:26;5.22;;;2.95;;
67997;SDS011;54773;53.388;-1.504;2023-05-10T10:12:10;5.93;;;2.95;;
67997;SDS011;54773;53.388;-1.504;2023-05-10T10:14:54;6.43;;;2.20;;
67997;SDS011;54773;53.388;-1.504;2023-05-10T10:17:38;5.32;;;2.40;;
67997;SDS011;54773;53.388;-1.504;2023-05-10T10:20:23;6.13;;;2.08;;
67997;SDS011;54773;53.388;-1.504;2023-05-10T10:23:08;3.85;;;2.45;;
67997;SDS011;54773;53.388;-1.504;2023-05-10T10:25:53;4.85;;;2.40;;
67997;SDS011;54773;53.388;-1.504;2023-05-10T10:28:49;5.93;;;3.15;;
67997;SDS011;54773;53.388;-1.504;2023-05-10T10:31:57;6.35;;;2.92;;
67997;SDS011;54773;53.388;-1.504;2023-05-10T10:35:04;6.65;;;2.97;;
67997;SDS011;54773;53.388;-1.504;2023-05-10T10:37:51;5.15;;;2.53;;
67997;SDS011;54773;53.388;-1.504;2023-05-10T10:40:35;4.85;;;2.20;;
67997;SDS011;54773;53.388;-1.504;2023-05-10T10:43:26;4.22;;;2.17;;
67997;SDS011;54773;53.388;-1.504;2023-05-10T10:46:14;5.15;;;2.70;;
67997;SDS011;54773;53.388;-1.504;2023-05-10T10:49:09;5.57;;;2.65;;
67997;SDS011;54773;53.388;-1.504;2023-05-10T10:52:13;5.00;;;2.50;;
67997;SDS011;54773;53.388;-1.504;2023-05-10T10:58:02;4.80;;;1.92;;
67997;SDS011;54773;53.388;-1.504;2023-05-10T11:00:48;4.57;;;1.77;;
67997;SDS011;54773;53.388;-1.504;2023-05-10T11:03:32;4.15;;;1.60;;
67997;SDS011;54773;53.388;-1.504;2023-05-10T11:06:17;5.35;;;2.45;;
67997;SDS011;54773;53.388;-1.504;2023-05-10T11:09:12;4.57;;;1.73;;
67997;SDS011;54773;53.388;-1.504;2023-05-10T11:11:56;5.73;;;2.53;;
67997;SDS011;54773;53.388;-1.504;2023-05-10T11:14:41;7.40;;;3.20;;
67997;SDS011;54773;53.388;-1.504;2023-05-10T11:17:29;7.38;;;3.20;;
67997;SDS011;54773;53.388;-1.504;2023-05-10T11:20:14;5.57;;;2.72;;
67997;SDS011;54773;53.388;-1.504;2023-05-10T11:23:10;4.28;;;2.35;;
67997;SDS011;54773;53.388;-1.504;2023-05-10T11:25:56;6.25;;;2.03;;
67997;SDS011;54773;53.388;-1.504;2023-05-10T11:28:49;5.30;;;2.03;;
67997;SDS011;54773;53.388;-1.504;2023-05-10T11:31:41;4.72;;;2.20;;
67997;SDS011;54773;53.388;-1.504;2023-05-10T11:34:28;5.32;;;2.20;;
67997;SDS011;54773;53.388;-1.504;2023-05-10T11:37:14;3.80;;;2.00;;
67997;SDS011;54773;53.388;-1.504;2023-05-10T11:39:57;3.97;;;1.90;;
67997;SDS011;54773;53.388;-1.504;2023-05-10T11:42:42;5.70;;;1.88;;
67997;SDS011;54773;53.388;-1.504;2023-05-10T11:45:31;3.70;;;1.70;;
67997;SDS011;54773;53.388;-1.504;2023-05-10T11:48:15;4.22;;;1.85;;
67997;SDS011;54773;53.388;-1.504;2023-05-10T11:51:02;2.95;;;1.27;;
67997;SDS011;54773;53.388;-1.504;2023-05-10T11:53:47;3.13;;;1.35;;
67997;SDS011;54773;53.388;-1.504;2023-05-10T11:56:33;4.22;;;1.70;;
67997;SDS011;54773;53.388;-1.504;2023-05-10T11:59:18;3.28;;;1.30;;
67997;SDS011;54773;53.388;-1.504;2023-05-10T12:02:02;2.33;;;1.20;;
67997;SDS011;54773;53.388;-1.504;2023-05-10T12:04:49;3.40;;;1.35;;
67997;SDS011;54773;53.388;-1.504;2023-05-10T12:07:34;4.13;;;1.20;;
67997;SDS011;54773;53.388;-1.504;2023-05-10T12:10:26;4.20;;;1.70;;
67997;SDS011;54773;53.388;-1.504;2023-05-10T12:15:58;1.90;;;0.80;;
67997;SDS011;54773;53.388;-1.504;2023-05-10T12:18:42;2.13;;;0.88;;
67997;SDS011;54773;53.388;-1.504;2023-05-10T12:21:27;0.73;;;0.60;;
67997;SDS011;54773;53.388;-1.504;2023-05-10T12:24:12;1.65;;;0.65;;
67997;SDS011;54773;53.388;-1.504;2023-05-10T12:26:56;3.92;;;0.60;;
67997;SDS011;54773;53.388;-1.504;2023-05-10T12:29:46;2.75;;;0.60;;
67997;SDS011;54773;53.388;-1.504;2023-05-10T12:32:41;2.15;;;0.80;;
67997;SDS011;54773;53.388;-1.504;2023-05-10T12:35:25;1.50;;;0.75;;
67997;SDS011;54773;53.388;-1.504;2023-05-10T12:46:44;1.60;;;0.70;;
67997;SDS011;54773;53.388;-1.504;2023-05-10T12:49:28;3.13;;;0.80;;
67997;SDS011;54773;53.388;-1.504;2023-05-10T12:52:13;2.05;;;0.85;;
67997;SDS011;54773;53.388;-1.504;2023-05-10T12:54:57;1.55;;;0.80;;
67997;SDS011;54773;53.388;-1.504;2023-05-10T12:57:41;1.38;;;0.80;;
67997;SDS011;54773;53.388;-1.504;2023-05-10T13:00:25;1.73;;;0.80;;
67997;SDS011;54773;53.388;-1.504;2023-05-10T13:03:09;1.60;;;0.60;;
67997;SDS011;54773;53.388;-1.504;2023-05-10T13:05:56;1.85;;;0.77;;
67997;SDS011;54773;53.388;-1.504;2023-05-10T13:08:41;2.30;;;0.82;;
67997;SDS011;54773;53.388;-1.504;2023-05-10T13:11:32;3.28;;;1.00;;
67997;SDS011;54773;53.388;-1.504;2023-05-10T13:14:20;2.38;;;0.90;;
67997;SDS011;54773;53.388;-1.504;2023-05-10T13:17:04;2.90;;;0.90;;
67997;SDS011;54773;53.388;-1.504;2023-05-10T13:19:49;2.25;;;0.90;;
67997;SDS011;54773;53.388;-1.504;2023-05-10T13:22:32;2.30;;;1.00;;
67997;SDS011;54773;53.388;-1.504;2023-05-10T13:25:16;3.75;;;1.38;;
67997;SDS011;54773;53.388;-1.504;2023-05-10T13:28:01;2.75;;;1.02;;
67997;SDS011;54773;53.388;-1.504;2023-05-10T13:30:48;2.05;;;0.80;;
67997;SDS011;54773;53.388;-1.504;2023-05-10T13:33:33;1.63;;;0.73;;
67997;SDS011;54773;53.388;-1.504;2023-05-10T13:36:17;2.65;;;0.80;;
67997;SDS011;54773;53.388;-1.504;2023-05-10T13:39:01;2.40;;;0.90;;
67997;SDS011;54773;53.388;-1.504;2023-05-10T13:41:47;1.58;;;0.63;;
67997;SDS011;54773;53.388;-1.504;2023-05-10T13:44:31;1.63;;;0.70;;
67997;SDS011;54773;53.388;-1.504;2023-05-10T13:47:17;1.30;;;0.60;;
67997;SDS011;54773;53.388;-1.504;2023-05-10T13:50:01;0.90;;;0.60;;
67997;SDS011;54773;53.388;-1.504;2023-05-10T13:52:45;3.20;;;0.90;;
67997;SDS011;54773;53.388;-1.504;2023-05-10T13:55:29;1.08;;;0.60;;
67997;SDS011;54773;53.388;-1.504;2023-05-10T13:58:14;1.23;;;0.60;;
67997;SDS011;54773;53.388;-1.504;2023-05-10T14:00:58;1.40;;;0.50;;
67997;SDS011;54773;53.388;-1.504;2023-05-10T14:03:42;0.82;;;0.50;;
67997;SDS011;54773;53.388;-1.504;2023-05-10T14:06:30;2.78;;;0.50;;
67997;SDS011;54773;53.388;-1.504;2023-05-10T14:09:14;1.92;;;0.50;;
67997;SDS011;54773;53.388;-1.504;2023-05-10T14:11:58;3.07;;;0.70;;
67997;SDS011;54773;53.388;-1.504;2023-05-10T14:14:42;2.42;;;0.70;;
67997;SDS011;54773;53.388;-1.504;2023-05-10T14:17:26;1.80;;;0.60;;
67997;SDS011;54773;53.388;-1.504;2023-05-10T14:20:10;1.13;;;0.60;;
67997;SDS011;54773;53.388;-1.504;2023-05-10T14:22:55;0.88;;;0.47;;
67997;SDS011;54773;53.388;-1.504;2023-05-10T14:25:42;1.08;;;0.60;;
67997;SDS011;54773;53.388;-1.504;2023-05-10T14:28:29;1.55;;;0.70;;
67997;SDS011;54773;53.388;-1.504;2023-05-10T14:31:17;2.13;;;0.98;;
67997;SDS011;54773;53.388;-1.504;2023-05-10T14:34:02;3.08;;;1.35;;
67997;SDS011;54773;53.388;-1.504;2023-05-10T14:36:46;3.25;;;1.80;;
67997;SDS011;54773;53.388;-1.504;2023-05-10T14:39:30;2.97;;;1.10;;
67997;SDS011;54773;53.388;-1.504;2023-05-10T14:42:15;3.60;;;1.10;;
67997;SDS011;54773;53.388;-1.504;2023-05-10T14:44:59;2.45;;;0.95;;
67997;SDS011;54773;53.388;-1.504;2023-05-10T14:47:43;1.55;;;0.60;;
67997;SDS011;54773;53.388;-1.504;2023-05-10T14:50:27;1.88;;;0.80;;
67997;SDS011;54773;53.388;-1.504;2023-05-10T14:53:11;1.67;;;0.75;;
67997;SDS011;54773;53.388;-1.504;2023-05-10T14:55:55;3.97;;;0.93;;
67997;SDS011;54773;53.388;-1.504;2023-05-10T14:58:39;1.65;;;0.63;;
67997;SDS011;54773;53.388;-1.504;2023-05-10T15:01:26;2.15;;;0.90;;
67997;SDS011;54773;53.388;-1.504;2023-05-10T15:04:10;1.63;;;0.50;;
67997;SDS011;54773;53.388;-1.504;2023-05-10T15:06:54;1.80;;;0.75;;
67997;SDS011;54773;53.388;-1.504;2023-05-10T15:09:42;0.68;;;0.50;;
67997;SDS011;54773;53.388;-1.504;2023-05-10T15:12:26;1.58;;;0.40;;
67997;SDS011;54773;53.388;-1.504;2023-05-10T15:15:10;1.88;;;0.70;;
67997;SDS011;54773;53.388;-1.504;2023-05-10T15:17:54;2.33;;;0.70;;
67997;SDS011;54773;53.388;-1.504;2023-05-10T15:20:38;1.13;;;0.50;;
67997;SDS011;54773;53.388;-1.504;2023-05-10T15:23:22;0.90;;;0.50;;
67997;SDS011;54773;53.388;-1.504;2023-05-10T15:26:07;1.10;;;0.60;;
67997;SDS011;54773;53.388;-1.504;2023-05-10T15:28:51;2.70;;;0.75;;
67997;SDS011;54773;53.388;-1.504;2023-05-10T15:31:36;1.90;;;0.80;;
67997;SDS011;54773;53.388;-1.504;2023-05-10T15:34:20;2.38;;;0.90;;
67997;SDS011;54773;53.388;-1.504;2023-05-10T15:37:04;1.95;;;0.63;;
67997;SDS011;54773;53.388;-1.504;2023-05-10T15:39:48;1.83;;;0.70;;
67997;SDS011;54773;53.388;-1.504;2023-05-10T15:42:32;2.92;;;0.80;;
67997;SDS011;54773;53.388;-1.504;2023-05-10T15:45:16;2.47;;;0.90;;
67997;SDS011;54773;53.388;-1.504;2023-05-10T15:48:03;1.77;;;0.88;;
67997;SDS011;54773;53.388;-1.504;2023-05-10T15:50:53;2.85;;;0.88;;
67997;SDS011;54773;53.388;-1.504;2023-05-10T15:53:37;2.03;;;0.80;;
67997;SDS011;54773;53.388;-1.504;2023-05-10T15:56:21;2.45;;;0.90;;
67997;SDS011;54773;53.388;-1.504;2023-05-10T15:59:05;4.90;;;1.20;;
67997;SDS011;54773;53.388;-1.504;2023-05-10T16:01:51;2.05;;;0.80;;
67997;SDS011;54773;53.388;-1.504;2023-05-10T16:04:35;1.93;;;0.90;;
67997;SDS011;54773;53.388;-1.504;2023-05-10T16:07:19;2.60;;;0.80;;
67997;SDS011;54773;53.388;-1.504;2023-05-10T16:10:03;3.15;;;0.70;;
67997;SDS011;54773;53.388;-1.504;2023-05-10T16:12:49;1.25;;;0.50;;
67997;SDS011;54773;53.388;-1.504;2023-05-10T16:15:33;2.40;;;0.75;;
67997;SDS011;54773;53.388;-1.504;2023-05-10T16:18:17;3.17;;;0.85;;
67997;SDS011;54773;53.388;-1.504;2023-05-10T16:21:01;1.80;;;0.50;;
67997;SDS011;54773;53.388;-1.504;2023-05-10T16:23:45;2.00;;;0.75;;
67997;SDS011;54773;53.388;-1.504;2023-05-10T16:26:29;3.25;;;0.80;;
67997;SDS011;54773;53.388;-1.504;2023-05-10T16:29:13;2.80;;;0.95;;
67997;SDS011;54773;53.388;-1.504;2023-05-10T16:31:57;2.07;;;0.80;;
67997;SDS011;54773;53.388;-1.504;2023-05-10T16:34:41;2.85;;;0.90;;
67997;SDS011;54773;53.388;-1.504;2023-05-10T16:37:25;1.60;;;0.60;;
67997;SDS011;54773;53.388;-1.504;2023-05-10T16:40:09;2.92;;;0.85;;
67997;SDS011;54773;53.388;-1.504;2023-05-10T16:42:53;4.03;;;0.70;;
67997;SDS011;54773;53.388;-1.504;2023-05-10T16:45:37;2.70;;;0.75;;
67997;SDS011;54773;53.388;-1.504;2023-05-10T16:48:22;1.77;;;0.70;;
67997;SDS011;54773;53.388;-1.504;2023-05-10T16:51:06;2.25;;;0.70;;
67997;SDS011;54773;53.388;-1.504;2023-05-10T16:53:54;3.97;;;0.70;;
67997;SDS011;54773;53.388;-1.504;2023-05-10T16:56:38;1.13;;;0.70;;
67997;SDS011;54773;53.388;-1.504;2023-05-10T16:59:22;3.00;;;1.00;;
67997;SDS011;54773;53.388;-1.504;2023-05-10T17:04:11;2.03;;;0.65;;
67997;SDS011;54773;53.388;-1.504;2023-05-10T17:06:56;1.27;;;0.60;;
67997;SDS011;54773;53.388;-1.504;2023-05-10T17:09:45;1.83;;;0.60;;
67997;SDS011;54773;53.388;-1.504;2023-05-10T17:12:29;2.78;;;0.70;;
67997;SDS011;54773;53.388;-1.504;2023-05-10T17:15:13;2.92;;;0.80;;
67997;SDS011;54773;53.388;-1.504;2023-05-10T17:17:59;2.08;;;0.68;;